Time;durP1;ratioP1;P1;durP2;ratioP2;P2;SDS_P1;SDS_P2;PMS_P1;PMS_P2;Temp;Humidity;BMP_temperature;BMP_pressure;BME280_temperature;BME280_humidity;BME280_pressure;Samples;Min_cycle;Max_cycle;Signal;HPM_P1;HPM_P2
2023/09/03 00:02:53;;;;;;;6.50;5.40;;;;;;;14.54;76.94;100744.42;131098;1254;108379;-76
2023/09/03 00:05:58;;;;;;;8.60;5.10;;;;;;;14.48;77.13;100745.61;131186;1261;108349;-76
2023/09/03 00:09:05;;;;;;;7.50;5.50;;;;;;;14.42;77.19;100750.75;131110;1253;107052;-76
2023/09/03 00:12:10;;;;;;;7.50;5.40;;;;;;;14.36;77.13;100747.62;131195;1255;107553;-76
2023/09/03 00:15:16;;;;;;;8.10;4.90;;;;;;;14.30;77.09;100751.61;131134;1263;107559;-76
2023/09/03 00:18:22;;;;;;;8.60;4.90;;;;;;;14.27;77.30;100753.23;131074;1255;107582;-76
2023/09/03 00:21:27;;;;;;;5.90;4.80;;;;;;;14.28;77.13;100755.41;131152;1253;106629;-75
2023/09/03 00:24:35;;;;;;;6.90;5.30;;;;;;;14.33;77.32;100751.36;131409;1247;105954;-76
2023/09/03 00:27:40;;;;;;;7.60;5.00;;;;;;;14.37;77.42;100750.02;131256;1254;108618;-75
2023/09/03 00:30:46;;;;;;;7.70;5.80;;;;;;;14.41;77.47;100750.07;131094;1253;106582;-77
2023/09/03 00:33:52;;;;;;;7.30;4.70;;;;;;;14.43;77.53;100749.30;131113;1252;106927;-75
2023/09/03 00:36:57;;;;;;;6.50;5.30;;;;;;;14.44;77.58;100747.48;131135;1253;107041;-76
2023/09/03 00:40:05;;;;;;;8.30;4.80;;;;;;;14.42;77.57;100745.57;131062;1254;107516;-76
2023/09/03 00:43:10;;;;;;;6.00;4.30;;;;;;;14.38;77.65;100745.73;130975;1264;108535;-76
2023/09/03 00:46:17;;;;;;;7.00;4.80;;;;;;;14.34;77.47;100747.61;131105;1249;108623;-76
2023/09/03 00:49:25;;;;;;;7.00;4.70;;;;;;;14.30;77.83;100746.84;131055;1251;107465;-76
2023/09/03 00:52:31;;;;;;;6.70;4.70;;;;;;;14.29;77.72;100747.67;131119;1247;106657;-76
2023/09/03 00:55:37;;;;;;;12.80;5.50;;;;;;;14.26;77.69;100748.16;130710;1248;450102;-78
2023/09/03 00:58:45;;;;;;;7.10;5.00;;;;;;;14.23;77.83;100751.55;131156;1253;107834;-76
2023/09/03 01:01:51;;;;;;;7.70;5.60;;;;;;;14.18;77.86;100752.27;131133;1253;106170;-76
2023/09/03 01:04:57;;;;;;;5.60;4.80;;;;;;;14.14;77.82;100750.09;131114;1252;107902;-76
2023/09/03 01:08:04;;;;;;;8.00;4.70;;;;;;;14.10;77.83;100747.49;131111;1247;107904;-76
2023/09/03 01:11:22;;;;;;;7.00;4.80;;;;;;;14.07;77.74;100746.92;131043;1251;106620;-76
2023/09/03 01:14:39;;;;;;;5.70;5.10;;;;;;;14.07;77.90;100747.36;131070;1257;108660;-76
2023/09/03 01:17:52;;;;;;;7.70;5.30;;;;;;;14.06;77.92;100754.39;131066;1254;106248;-76
2023/09/03 01:21:14;;;;;;;6.20;4.90;;;;;;;14.05;78.03;100750.06;131102;1254;106922;-76
2023/09/03 01:24:35;;;;;;;7.20;5.50;;;;;;;14.03;78.10;100749.39;131112;1248;108421;-76
2023/09/03 01:27:51;;;;;;;7.40;5.60;;;;;;;13.98;78.10;100748.31;131144;1253;107768;-76
2023/09/03 01:31:02;;;;;;;6.50;4.80;;;;;;;13.92;77.99;100749.42;131074;1254;106365;-76
2023/09/03 01:34:07;;;;;;;7.80;4.50;;;;;;;13.87;78.28;100745.52;131083;1251;107693;-76
2023/09/03 01:37:15;;;;;;;4.80;4.30;;;;;;;13.83;78.31;100745.98;131126;1254;107768;-76
2023/09/03 01:40:21;;;;;;;6.00;4.70;;;;;;;13.78;78.31;100744.98;131138;1254;108619;-76
2023/09/03 01:43:26;;;;;;;5.60;4.70;;;;;;;13.73;78.32;100744.13;131063;1254;107388;-78
2023/09/03 01:46:41;;;;;;;8.20;5.10;;;;;;;13.67;78.24;100740.11;131111;1252;106929;-78
2023/09/03 01:49:55;;;;;;;8.30;5.20;;;;;;;13.62;78.17;100741.30;131044;1250;109006;-76
2023/09/03 01:53:07;;;;;;;7.50;5.10;;;;;;;13.55;78.17;100738.85;131118;1248;107652;-76
2023/09/03 01:56:18;;;;;;;6.30;4.90;;;;;;;13.48;78.33;100734.70;131053;1254;107552;-77
2023/09/03 01:59:30;;;;;;;6.10;5.10;;;;;;;13.41;78.25;100736.02;131188;1253;107433;-77
2023/09/03 02:02:37;;;;;;;6.70;4.50;;;;;;;13.36;78.32;100734.03;131080;1249;106633;-76
2023/09/03 02:05:43;;;;;;;5.60;4.70;;;;;;;13.32;78.21;100727.48;131037;1253;106996;-76
2023/09/03 02:08:48;;;;;;;6.40;4.90;;;;;;;13.28;77.98;100728.36;131099;1254;107648;-76
2023/09/03 02:11:54;;;;;;;5.90;4.90;;;;;;;13.20;78.07;100727.61;131073;1253;105513;-76
2023/09/03 02:15:00;;;;;;;7.40;5.10;;;;;;;13.18;78.27;100727.98;131056;1253;107585;-76
2023/09/03 02:18:06;;;;;;;7.30;5.20;;;;;;;13.15;78.10;100724.17;131051;1252;105878;-77
2023/09/03 02:21:11;;;;;;;8.90;5.40;;;;;;;13.11;78.17;100718.15;131167;1252;109306;-76
2023/09/03 02:24:17;;;;;;;8.90;5.40;;;;;;;13.08;78.42;100714.25;131123;1250;107807;-77
2023/09/03 02:27:23;;;;;;;5.70;5.10;;;;;;;13.01;78.28;100714.77;131089;1248;108629;-76
2023/09/03 02:30:28;;;;;;;6.50;5.00;;;;;;;12.94;78.47;100714.31;131086;1262;106387;-75
2023/09/03 02:33:34;;;;;;;6.80;4.70;;;;;;;12.92;78.40;100706.31;131068;1248;107714;-76
2023/09/03 02:36:40;;;;;;;6.40;5.10;;;;;;;12.91;78.34;100704.81;131155;1254;106220;-76
2023/09/03 02:39:46;;;;;;;6.10;5.10;;;;;;;12.93;78.40;100701.04;131169;1247;108571;-77
2023/09/03 02:42:52;;;;;;;8.70;5.50;;;;;;;12.97;78.74;100697.98;131111;1251;108463;-76
2023/09/03 02:45:58;;;;;;;7.90;5.40;;;;;;;12.98;78.64;100699.18;131153;1250;107739;-76
2023/09/03 02:49:03;;;;;;;6.90;5.70;;;;;;;12.99;78.82;100700.48;131132;1253;108680;-76
2023/09/03 02:52:09;;;;;;;9.30;5.70;;;;;;;12.99;79.07;100697.63;131170;1251;108066;-76
2023/09/03 02:55:15;;;;;;;7.20;5.10;;;;;;;13.01;79.07;100694.86;131134;1253;107178;-76
2023/09/03 02:58:20;;;;;;;7.50;4.70;;;;;;;13.06;79.07;100693.84;131050;1254;107031;-75
2023/09/03 03:01:26;;;;;;;6.50;5.10;;;;;;;13.11;79.20;100699.91;131156;1249;108530;-76
2023/09/03 03:04:32;;;;;;;7.60;5.30;;;;;;;13.16;79.21;100701.45;131157;1261;107750;-78
2023/09/03 03:07:40;;;;;;;7.40;4.90;;;;;;;13.20;79.18;100699.23;131213;1254;106786;-78
2023/09/03 03:10:45;;;;;;;7.10;5.00;;;;;;;13.21;79.36;100701.19;131143;1250;107574;-78
2023/09/03 03:13:52;;;;;;;8.80;5.60;;;;;;;13.24;79.45;100700.04;131130;1251;106820;-76
2023/09/03 03:16:58;;;;;;;6.90;5.00;;;;;;;13.26;79.42;100696.96;131120;1254;106411;-76
2023/09/03 03:20:06;;;;;;;5.90;4.60;;;;;;;13.28;79.56;100700.84;131111;1247;106952;-76
2023/09/03 03:23:12;;;;;;;7.00;4.90;;;;;;;13.32;79.64;100703.13;131462;1249;106556;-76
2023/09/03 03:26:18;;;;;;;7.90;6.20;;;;;;;13.37;79.57;100706.42;131187;1252;108167;-76
2023/09/03 03:29:25;;;;;;;7.10;5.00;;;;;;;13.38;79.63;100698.96;131201;1248;107141;-76
2023/09/03 03:32:31;;;;;;;5.90;5.20;;;;;;;13.37;79.52;100695.31;131210;1250;108485;-76
2023/09/03 03:35:39;;;;;;;6.00;5.30;;;;;;;13.32;79.45;100693.31;131119;1255;105842;-76
2023/09/03 03:38:45;;;;;;;5.60;5.00;;;;;;;13.28;79.62;100697.67;131152;1254;107121;-77
2023/09/03 03:41:50;;;;;;;6.20;4.60;;;;;;;13.21;79.45;100698.89;131122;1253;107874;-76
2023/09/03 03:44:56;;;;;;;5.90;5.00;;;;;;;13.17;79.55;100702.04;131139;1254;106568;-76
2023/09/03 03:48:02;;;;;;;6.10;5.00;;;;;;;13.14;79.42;100703.35;131152;1250;107020;-76
2023/09/03 03:51:08;;;;;;;7.10;5.10;;;;;;;13.08;79.32;100703.45;131087;1252;108775;-76
2023/09/03 03:54:14;;;;;;;7.10;5.00;;;;;;;13.03;79.44;100705.48;131051;1254;108675;-76
2023/09/03 03:57:20;;;;;;;5.20;4.70;;;;;;;12.97;79.47;100712.52;131132;1248;107409;-76
2023/09/03 04:00:25;;;;;;;7.60;5.30;;;;;;;12.91;79.61;100715.38;131148;1254;107599;-76
2023/09/03 04:03:31;;;;;;;6.10;5.00;;;;;;;12.87;79.47;100721.48;131151;1254;106680;-76
2023/09/03 04:06:36;;;;;;;5.90;4.70;;;;;;;12.83;79.51;100720.11;131168;1253;106580;-76
2023/09/03 04:09:42;;;;;;;5.30;4.60;;;;;;;12.82;79.53;100722.55;131096;1263;109322;-76
2023/09/03 04:12:48;;;;;;;7.80;5.00;;;;;;;12.84;79.59;100731.27;131153;1249;107308;-76
2023/09/03 04:15:53;;;;;;;8.50;5.80;;;;;;;12.87;79.40;100732.22;131107;1250;107729;-76
2023/09/03 04:18:59;;;;;;;6.90;5.00;;;;;;;12.86;79.34;100734.64;131100;1253;107796;-76
2023/09/03 04:22:05;;;;;;;6.40;5.10;;;;;;;12.84;79.54;100735.60;131147;1248;107599;-76
2023/09/03 04:25:11;;;;;;;6.40;5.00;;;;;;;12.84;79.47;100739.27;131014;1253;106556;-76
2023/09/03 04:28:18;;;;;;;6.20;5.00;;;;;;;12.87;79.78;100741.86;131073;1251;107664;-76
2023/09/03 04:31:24;;;;;;;5.60;4.70;;;;;;;12.92;79.78;100741.94;131026;1256;106386;-76
2023/09/03 04:34:30;;;;;;;6.60;4.80;;;;;;;12.98;79.75;100739.35;131098;1263;107650;-76
2023/09/03 04:37:36;;;;;;;6.50;4.80;;;;;;;13.05;79.85;100742.16;131120;1254;108875;-76
2023/09/03 04:40:43;;;;;;;6.80;5.00;;;;;;;13.13;80.01;100744.22;131040;1250;107700;-76
2023/09/03 04:43:49;;;;;;;6.60;5.50;;;;;;;13.22;79.99;100742.42;131169;1252;107622;-76
2023/09/03 04:47:01;;;;;;;6.20;5.00;;;;;;;13.25;79.98;100748.89;131068;1253;107661;-76
2023/09/03 04:50:08;;;;;;;6.00;4.90;;;;;;;13.27;80.21;100743.14;131100;1254;107181;-75
2023/09/03 04:53:13;;;;;;;7.00;4.90;;;;;;;13.34;80.31;100741.23;131106;1264;106996;-76
2023/09/03 04:56:19;;;;;;;7.50;4.40;;;;;;;13.44;80.51;100744.67;131069;1250;107310;-76
2023/09/03 04:59:25;;;;;;;5.70;5.10;;;;;;;13.55;80.72;100741.34;131111;1250;107648;-76
2023/09/03 05:02:31;;;;;;;5.80;4.70;;;;;;;13.68;80.89;100739.25;131059;1254;107724;-76
2023/09/03 05:05:42;;;;;;;6.60;5.10;;;;;;;13.83;81.01;100735.39;131056;1253;107160;-76
2023/09/03 05:08:49;;;;;;;5.40;4.80;;;;;;;14.07;81.31;100734.27;131140;1252;107671;-72
2023/09/03 05:11:55;;;;;;;16.70;8.80;;;;;;;14.32;81.24;100733.69;131253;1252;106761;-73
2023/09/03 05:15:00;;;;;;;12.10;6.50;;;;;;;14.59;81.14;100729.52;131393;1250;106023;-73
2023/09/03 05:18:07;;;;;;;6.60;5.60;;;;;;;14.87;81.37;100732.11;131127;1252;107515;-72
2023/09/03 05:21:13;;;;;;;8.00;6.80;;;;;;;15.15;81.57;100726.42;131106;1247;108385;-72
2023/09/03 05:24:19;;;;;;;10.50;6.20;;;;;;;15.40;81.57;100727.48;131203;1250;108447;-73
2023/09/03 05:27:25;;;;;;;11.90;8.20;;;;;;;15.52;81.41;100726.39;131448;1247;106151;-73
2023/09/03 05:30:31;;;;;;;10.60;8.10;;;;;;;15.59;81.52;100736.44;131291;1254;107042;-73
2023/09/03 05:33:39;;;;;;;10.20;7.40;;;;;;;15.62;81.59;100737.67;131267;1252;107767;-73
2023/09/03 05:36:45;;;;;;;12.00;8.30;;;;;;;15.71;81.73;100744.40;131273;1253;106695;-73
2023/09/03 05:39:51;;;;;;;12.30;9.10;;;;;;;15.70;81.38;100748.00;131311;1253;107877;-73
2023/09/03 05:42:57;;;;;;;10.40;8.70;;;;;;;15.69;81.35;100753.19;131184;1252;105914;-72
2023/09/03 05:46:03;;;;;;;9.30;8.30;;;;;;;15.63;81.32;100755.70;131274;1248;108373;-73
2023/09/03 05:49:09;;;;;;;8.50;7.60;;;;;;;15.61;81.81;100754.85;131145;1250;107645;-73
2023/09/03 05:52:15;;;;;;;8.20;7.10;;;;;;;15.71;81.82;100756.45;131223;1252;107745;-74
2023/09/03 05:55:20;;;;;;;11.90;7.30;;;;;;;15.82;81.75;100759.70;131205;1252;106744;-73
2023/09/03 05:58:26;;;;;;;10.70;8.00;;;;;;;15.93;81.72;100765.59;131167;1252;107216;-74
2023/09/03 06:01:32;;;;;;;8.60;7.50;;;;;;;16.04;81.68;100761.96;131195;1252;106677;-73
2023/09/03 06:04:38;;;;;;;10.90;8.10;;;;;;;16.16;81.48;100762.23;131162;1247;106583;-74
2023/09/03 06:07:44;;;;;;;9.80;8.70;;;;;;;16.28;81.33;100760.85;131267;1247;107571;-73
2023/09/03 06:10:49;;;;;;;9.60;8.20;;;;;;;16.39;81.40;100760.30;131127;1248;107994;-75
2023/09/03 06:13:55;;;;;;;10.60;8.10;;;;;;;16.48;81.29;100765.63;131054;1252;107198;-77
2023/09/03 06:17:02;;;;;;;8.10;7.30;;;;;;;16.60;81.26;100764.67;131149;1252;107745;-77
2023/09/03 06:20:10;;;;;;;9.00;8.00;;;;;;;16.74;81.15;100767.13;131182;1253;106777;-77
2023/09/03 06:23:18;;;;;;;9.40;7.20;;;;;;;16.84;80.87;100767.64;131128;1247;107769;-77
2023/09/03 06:26:24;;;;;;;11.60;7.70;;;;;;;16.91;80.43;100769.00;131183;1251;108022;-77
2023/09/03 06:29:33;;;;;;;9.90;7.70;;;;;;;16.97;80.43;100767.40;131222;1253;106399;-79
2023/09/03 06:32:38;;;;;;;10.10;7.80;;;;;;;17.04;80.68;100766.98;131088;1252;107817;-76
2023/09/03 06:35:45;;;;;;;9.60;8.10;;;;;;;17.11;80.91;100772.48;131104;1252;107853;-76
2023/09/03 06:38:50;;;;;;;10.40;7.50;;;;;;;17.12;80.47;100768.73;131084;1251;107480;-78
2023/09/03 06:41:56;;;;;;;9.40;7.50;;;;;;;17.14;80.71;100775.19;131070;1250;106754;-78
2023/09/03 06:45:04;;;;;;;8.30;7.20;;;;;;;17.19;80.69;100773.17;131007;1252;107931;-79
2023/09/03 06:48:09;;;;;;;9.40;7.20;;;;;;;17.25;80.47;100778.41;131147;1252;107642;-76
2023/09/03 06:51:15;;;;;;;8.90;8.00;;;;;;;17.34;80.73;100782.88;131113;1264;106997;-76
2023/09/03 06:54:20;;;;;;;8.90;8.00;;;;;;;17.39;80.75;100784.30;131108;1248;106624;-77
2023/09/03 06:57:26;;;;;;;8.10;6.90;;;;;;;17.38;80.86;100784.77;131161;1253;108604;-76
2023/09/03 07:00:34;;;;;;;7.20;6.40;;;;;;;17.39;80.44;100787.55;131045;1252;108643;-79
2023/09/03 07:03:40;;;;;;;7.60;6.40;;;;;;;17.40;80.63;100793.60;131118;1254;106773;-76
2023/09/03 07:06:45;;;;;;;7.70;6.10;;;;;;;17.46;80.86;100804.33;131086;1260;108497;-77
2023/09/03 07:09:51;;;;;;;6.90;6.20;;;;;;;17.45;80.68;100811.80;131040;1250;107365;-77
2023/09/03 07:12:56;;;;;;;6.50;5.80;;;;;;;17.39;81.09;100814.63;131117;1254;106167;-76
2023/09/03 07:16:06;;;;;;;6.90;5.50;;;;;;;17.42;81.24;100821.30;131237;1255;108415;-76
2023/09/03 07:19:12;;;;;;;7.90;5.70;;;;;;;17.52;81.32;100824.20;131107;1252;106776;-76
2023/09/03 07:22:18;;;;;;;7.10;6.40;;;;;;;17.62;81.07;100827.00;131165;1249;107082;-77
2023/09/03 07:25:23;;;;;;;6.40;5.80;;;;;;;17.75;80.50;100817.72;131083;1261;107432;-76
2023/09/03 07:28:31;;;;;;;6.10;5.00;;;;;;;17.80;79.75;100824.88;131064;1252;108641;-76
2023/09/03 07:31:40;;;;;;;5.80;5.20;;;;;;;17.87;79.68;100832.15;131079;1254;109325;-79
2023/09/03 07:34:46;;;;;;;6.60;5.50;;;;;;;17.94;79.55;100840.60;131051;1250;106501;-76
2023/09/03 07:37:52;;;;;;;6.90;5.50;;;;;;;18.01;79.64;100845.31;131082;1252;108400;-76
2023/09/03 07:40:57;;;;;;;6.00;5.40;;;;;;;18.15;79.39;100853.04;131065;1252;107679;-76
2023/09/03 07:44:03;;;;;;;8.00;5.30;;;;;;;18.29;78.90;100852.95;131115;1253;107811;-76
2023/09/03 07:47:09;;;;;;;6.90;5.70;;;;;;;18.46;79.40;100853.29;131083;1252;107810;-77
2023/09/03 07:50:15;;;;;;;6.60;5.60;;;;;;;18.60;78.63;100851.92;131130;1250;107015;-77
2023/09/03 07:53:20;;;;;;;7.00;5.70;;;;;;;18.63;77.57;100851.37;131065;1250;107456;-76
2023/09/03 07:56:26;;;;;;;6.70;5.10;;;;;;;18.66;76.46;100851.19;131153;1252;107765;-77
2023/09/03 07:59:32;;;;;;;6.00;5.20;;;;;;;18.68;76.18;100850.46;131076;1263;107629;-77
2023/09/03 08:02:38;;;;;;;5.20;4.40;;;;;;;18.73;76.35;100845.98;131080;1252;109316;-76
2023/09/03 08:05:43;;;;;;;6.20;4.60;;;;;;;18.83;76.89;100838.86;131067;1247;106333;-77
2023/09/03 08:08:54;;;;;;;7.90;5.60;;;;;;;18.87;76.00;100836.20;131143;1248;107807;-76
2023/09/03 08:11:59;;;;;;;6.20;4.60;;;;;;;18.91;76.60;100832.29;131091;1248;107861;-78
2023/09/03 08:15:06;;;;;;;6.30;4.60;;;;;;;19.02;76.44;100832.71;131160;1252;106024;-76
2023/09/03 08:18:12;;;;;;;5.80;4.90;;;;;;;19.13;75.84;100838.02;131186;1252;107830;-77
2023/09/03 08:21:18;;;;;;;4.30;3.70;;;;;;;19.22;76.21;100830.72;131145;1252;107447;-77
2023/09/03 08:24:23;;;;;;;5.70;4.30;;;;;;;19.38;76.60;100825.57;131226;1249;107911;-77
2023/09/03 08:27:29;;;;;;;5.00;4.20;;;;;;;19.49;74.40;100825.59;131092;1252;106411;-77
2023/09/03 08:30:35;;;;;;;5.00;3.90;;;;;;;19.51;74.73;100827.35;131141;1254;106692;-77
2023/09/03 08:33:41;;;;;;;4.10;3.60;;;;;;;19.52;75.26;100824.73;131282;1251;107521;-77
2023/09/03 08:36:47;;;;;;;5.50;4.10;;;;;;;19.55;74.60;100822.85;131093;1252;106666;-76
2023/09/03 08:39:52;;;;;;;5.50;3.70;;;;;;;19.58;74.34;100827.66;131091;1251;107007;-76
2023/09/03 08:42:58;;;;;;;4.70;3.70;;;;;;;19.62;74.19;100827.52;131082;1252;107142;-77
2023/09/03 08:46:11;;;;;;;4.70;3.70;;;;;;;19.69;74.69;100825.23;131063;1252;107819;-77
2023/09/03 08:49:17;;;;;;;6.40;4.10;;;;;;;19.77;73.93;100817.34;131196;1250;106783;-80
2023/09/03 08:52:23;;;;;;;4.70;4.00;;;;;;;19.83;73.50;100821.41;131209;1252;108342;-76
2023/09/03 08:55:30;;;;;;;5.10;3.90;;;;;;;19.85;72.91;100824.26;131612;1252;106583;-76
2023/09/03 08:58:36;;;;;;;5.30;3.90;;;;;;;19.88;72.10;100833.61;131223;1247;106787;-76
2023/09/03 09:01:43;;;;;;;4.50;4.00;;;;;;;19.93;72.90;100837.80;131109;1252;106707;-76
2023/09/03 09:04:49;;;;;;;4.20;3.80;;;;;;;19.97;73.04;100833.24;131118;1253;106723;-77
2023/09/03 09:07:56;;;;;;;4.20;3.80;;;;;;;20.03;72.43;100835.23;131423;1250;106662;-77
2023/09/03 09:11:07;;;;;;;5.00;3.90;;;;;;;20.06;71.99;100833.45;131174;1254;108300;-76
2023/09/03 09:14:18;;;;;;;;;;;;;;;20.08;71.35;100831.40;131258;1252;108045;-76
2023/09/03 09:17:23;;;;;;;4.60;3.50;;;;;;;20.13;72.11;100828.93;131152;1265;108705;-77
2023/09/03 09:20:32;;;;;;;3.70;3.40;;;;;;;20.16;71.57;100825.86;131119;1252;106327;-75
2023/09/03 09:23:38;;;;;;;5.30;3.90;;;;;;;20.20;70.16;100834.06;131190;1250;106766;-76
2023/09/03 09:26:44;;;;;;;7.20;6.50;;;;;;;20.21;69.90;100835.43;131190;1252;108056;-77
2023/09/03 09:29:49;;;;;;;25.60;22.90;;;;;;;20.23;69.67;100839.31;131090;1253;108131;-76
2023/09/03 09:33:07;;;;;;;6.30;5.40;;;;;;;20.31;69.51;100839.92;131173;1249;108458;-77
2023/09/03 09:36:13;;;;;;;5.00;4.40;;;;;;;20.42;70.10;100840.96;131201;1252;106668;-78
2023/09/03 09:39:18;;;;;;;7.10;4.40;;;;;;;20.41;69.00;100843.27;131376;1252;107690;-77
2023/09/03 09:42:24;;;;;;;5.10;3.90;;;;;;;20.38;68.53;100840.15;131117;1248;107644;-77
2023/09/03 09:45:31;;;;;;;5.20;4.40;;;;;;;20.33;69.42;100836.48;131235;1252;106050;-77
2023/09/03 09:48:54;;;;;;;4.70;4.20;;;;;;;20.44;69.48;100829.33;131200;1253;106665;-77
2023/09/03 09:51:59;;;;;;;4.70;4.20;;;;;;;20.51;67.91;100832.91;131102;1252;107696;-77
2023/09/03 09:55:06;;;;;;;5.10;4.50;;;;;;;20.61;68.62;100835.20;131110;1252;107565;-76
2023/09/03 09:58:13;;;;;;;4.70;4.10;;;;;;;20.94;68.79;100824.45;131068;1252;108426;-77
2023/09/03 10:01:19;;;;;;;5.10;4.30;;;;;;;21.25;65.70;100825.70;131119;1250;108484;-76
2023/09/03 10:04:28;;;;;;;4.40;3.50;;;;;;;21.35;65.25;100822.66;131097;1250;106880;-76
2023/09/03 10:07:34;;;;;;;7.30;3.80;;;;;;;21.47;63.75;100822.21;131093;1252;108608;-77
2023/09/03 10:10:40;;;;;;;4.30;3.30;;;;;;;21.44;63.39;100827.25;131012;1254;107500;-78
2023/09/03 10:13:47;;;;;;;3.70;3.10;;;;;;;21.45;64.02;100827.15;131038;1255;107842;-77
2023/09/03 10:16:56;;;;;;;3.50;3.00;;;;;;;21.56;64.42;100822.95;131387;1253;108806;-77
2023/09/03 10:20:04;;;;;;;5.30;3.00;;;;;;;21.47;60.43;100833.69;131160;1249;108098;-76
2023/09/03 10:23:10;;;;;;;3.40;2.80;;;;;;;21.16;62.16;100830.85;131920;1250;108576;-77
2023/09/03 10:26:21;;;;;;;3.80;2.70;;;;;;;20.96;62.65;100830.77;131811;1249;107492;-78
2023/09/03 10:29:30;;;;;;;4.20;2.80;;;;;;;20.98;62.57;100826.42;131589;1252;107748;-76
2023/09/03 10:32:37;;;;;;;3.20;2.90;;;;;;;21.07;61.97;100827.55;131345;1253;109324;-76
2023/09/03 10:36:14;;;;;;;3.70;2.80;;;;;;;21.24;62.38;100831.64;131299;1252;107923;-77
2023/09/03 10:39:26;;;;;;;3.30;2.50;;;;;;;21.44;61.56;100824.55;131561;1250;108655;-76
2023/09/03 10:42:31;;;;;;;3.40;2.30;;;;;;;21.45;59.84;100827.89;131168;1252;107666;-77
2023/09/03 10:45:37;;;;;;;2.60;2.20;;;;;;;21.35;59.79;100832.13;131552;1252;107860;-77
2023/09/03 10:48:52;;;;;;;3.00;2.20;;;;;;;21.17;58.99;100833.89;131302;1252;108006;-76
2023/09/03 10:51:59;;;;;;;2.50;2.10;;;;;;;21.11;57.40;100832.93;131492;1249;107662;-76
2023/09/03 10:55:28;;;;;;;2.00;1.70;;;;;;;21.35;59.08;100828.13;131081;1254;107630;-76
2023/09/03 10:58:34;;;;;;;2.30;2.00;;;;;;;21.71;60.13;100812.48;131148;1252;108743;-76
2023/09/03 11:01:39;;;;;;;2.60;2.40;;;;;;;21.88;58.20;100818.27;131249;1251;108855;-77
2023/09/03 11:05:11;;;;;;;2.40;2.10;;;;;;;21.84;58.43;100820.12;131670;1252;108738;-78
2023/09/03 11:08:31;;;;;;;3.40;2.50;;;;;;;21.81;57.77;100823.10;131490;1252;107716;-76
2023/09/03 11:11:38;;;;;;;2.10;1.90;;;;;;;21.75;55.81;100821.61;131157;1252;106870;-76
2023/09/03 11:14:50;;;;;;;2.30;2.00;;;;;;;21.60;56.31;100823.86;131184;1250;107652;-76
2023/09/03 11:17:57;;;;;;;2.80;2.00;;;;;;;21.54;56.94;100817.39;131168;1250;107837;-76
2023/09/03 11:21:03;;;;;;;3.50;2.10;;;;;;;21.63;57.39;100810.53;131163;1251;108308;-76
2023/09/03 11:24:14;;;;;;;2.20;2.00;;;;;;;21.73;57.17;100810.25;131097;1253;108872;-76
2023/09/03 11:27:20;;;;;;;2.20;1.90;;;;;;;21.81;56.40;100810.06;131382;1252;109329;-76
2023/09/03 11:30:26;;;;;;;3.70;1.90;;;;;;;21.78;55.19;100814.13;131108;1252;108681;-77
2023/09/03 11:33:31;;;;;;;2.00;1.80;;;;;;;21.68;56.41;100816.73;131267;1249;106687;-76
2023/09/03 11:36:38;;;;;;;2.40;1.80;;;;;;;21.76;55.61;100814.16;131318;1252;107600;-77
2023/09/03 11:39:50;;;;;;;2.30;2.10;;;;;;;21.84;55.20;100810.33;131428;1252;107693;-76
2023/09/03 11:42:56;;;;;;;3.30;1.70;;;;;;;21.90;56.28;100809.36;131246;1250;107505;-77
2023/09/03 11:46:02;;;;;;;2.80;2.00;;;;;;;21.98;55.41;100809.83;131507;1252;105900;-77
2023/09/03 11:49:07;;;;;;;1.80;1.50;;;;;;;22.00;52.64;100812.59;131332;1252;107306;-76
2023/09/03 11:52:15;;;;;;;3.70;1.60;;;;;;;22.02;51.68;100816.17;131143;1252;106968;-75
2023/09/03 11:55:21;;;;;;;1.50;1.40;;;;;;;22.12;52.09;100812.45;131215;1252;107533;-77
2023/09/03 11:58:29;;;;;;;1.90;1.70;;;;;;;22.36;52.01;100812.70;131333;1252;106790;-77
2023/09/03 12:01:36;;;;;;;4.50;1.90;;;;;;;22.62;52.35;100809.42;131359;1252;106769;-78
2023/09/03 12:04:42;;;;;;;2.30;1.80;;;;;;;22.78;52.94;100807.92;131134;1250;107614;-78
2023/09/03 12:07:47;;;;;;;2.30;1.70;;;;;;;22.97;53.18;100808.00;131203;1252;108181;-77
2023/09/03 12:10:53;;;;;;;2.10;1.90;;;;;;;23.12;49.21;100807.85;131163;1260;107604;-77
2023/09/03 12:13:59;;;;;;;2.30;1.70;;;;;;;23.13;51.20;100805.20;131144;1248;107805;-77
2023/09/03 12:17:05;;;;;;;2.20;1.70;;;;;;;23.17;51.23;100810.23;131587;1250;107684;-78
2023/09/03 12:20:31;;;;;;;2.00;1.70;;;;;;;23.17;51.43;100808.61;131649;1250;107914;-78
2023/09/03 12:23:37;;;;;;;2.50;1.70;;;;;;;23.00;49.47;100809.84;131893;1252;108135;-76
2023/09/03 12:26:43;;;;;;;2.20;1.70;;;;;;;22.72;50.32;100811.58;131330;1252;107578;-76
2023/09/03 12:29:54;;;;;;;2.80;1.90;;;;;;;22.48;50.85;100813.52;131168;1252;106890;-77
2023/09/03 12:32:59;;;;;;;1.70;1.60;;;;;;;22.34;51.08;100815.22;131234;1250;108564;-78
2023/09/03 12:36:10;;;;;;;3.50;2.00;;;;;;;22.32;50.69;100812.14;131129;1251;108552;-77
2023/09/03 12:39:16;;;;;;;1.80;1.50;;;;;;;22.36;51.61;100806.77;131297;1248;107855;-76
2023/09/03 12:42:21;;;;;;;2.30;1.80;;;;;;;22.41;51.82;100806.19;131181;1250;108293;-77
2023/09/03 12:45:27;;;;;;;3.20;1.90;;;;;;;22.43;52.33;100804.42;131299;1250;108515;-76
2023/09/03 12:48:32;;;;;;;3.20;1.90;;;;;;;22.43;50.90;100809.91;131306;1253;107830;-76
2023/09/03 12:51:39;;;;;;;1.90;1.70;;;;;;;22.22;50.16;100812.62;131339;1251;108784;-81
2023/09/03 12:54:45;;;;;;;2.00;1.80;;;;;;;22.03;51.13;100809.18;131205;1252;210080;-78
2023/09/03 12:57:51;;;;;;;2.50;2.30;;;;;;;21.83;51.40;100805.25;131350;1249;107672;-77
2023/09/03 13:00:57;;;;;;;2.70;1.80;;;;;;;21.72;51.63;100800.60;131613;1252;108331;-77
2023/09/03 13:04:02;;;;;;;2.20;1.80;;;;;;;21.75;52.09;100798.25;131584;1251;106507;-77
2023/09/03 13:07:08;;;;;;;2.50;1.90;;;;;;;21.94;51.60;100788.86;131561;1250;106225;-77
2023/09/03 13:10:14;;;;;;;2.70;1.70;;;;;;;22.08;51.02;100783.48;131238;1251;107615;-78
2023/09/03 13:13:19;;;;;;;1.80;1.60;;;;;;;22.12;49.73;100784.02;131277;1253;107839;-77
2023/09/03 13:16:27;;;;;;;2.30;1.70;;;;;;;22.15;49.52;100793.20;131291;1252;106915;-77
2023/09/03 13:19:33;;;;;;;1.80;1.60;;;;;;;22.15;50.47;100790.23;131236;1252;106257;-77
2023/09/03 13:22:38;;;;;;;2.80;1.90;;;;;;;22.12;50.15;100793.98;131116;1252;106952;-75
2023/09/03 13:25:44;;;;;;;2.20;1.90;;;;;;;22.07;50.48;100789.65;131137;1252;107739;-80
2023/09/03 13:28:50;;;;;;;1.90;1.70;;;;;;;22.00;50.45;100789.09;131135;1252;106460;-78
2023/09/03 13:31:56;;;;;;;2.30;1.80;;;;;;;21.97;51.09;100783.54;131540;1252;107789;-79
2023/09/03 13:35:02;;;;;;;2.00;1.80;;;;;;;21.92;49.97;100780.72;131260;1250;107661;-79
2023/09/03 13:38:08;;;;;;;1.80;1.70;;;;;;;21.91;50.49;100786.96;131883;1250;107967;-79
2023/09/03 13:41:14;;;;;;;1.90;1.70;;;;;;;21.94;49.38;100786.81;131167;1263;107028;-79
2023/09/03 13:44:19;;;;;;;1.90;1.70;;;;;;;22.06;49.44;100783.80;131139;1253;106637;-79
2023/09/03 13:47:25;;;;;;;2.60;1.70;;;;;;;22.20;48.55;100787.08;131107;1252;108480;-79
2023/09/03 13:50:30;;;;;;;2.00;1.40;;;;;;;22.31;48.82;100790.81;131031;1252;107668;-79
2023/09/03 13:53:36;;;;;;;2.20;1.50;;;;;;;22.22;48.60;100797.07;131155;1253;108475;-79
2023/09/03 13:56:42;;;;;;;1.70;1.60;;;;;;;22.11;48.97;100804.85;131103;1250;109572;-79
2023/09/03 13:59:47;;;;;;;1.90;1.60;;;;;;;22.05;49.43;100802.70;131202;1252;108589;-79
2023/09/03 14:02:53;;;;;;;1.60;1.40;;;;;;;22.09;49.72;100803.98;131163;1253;107733;-79
2023/09/03 14:06:07;;;;;;;1.90;1.70;;;;;;;22.14;50.02;100804.83;131186;1252;105649;-79
2023/09/03 14:09:13;;;;;;;3.00;1.80;;;;;;;22.19;49.75;100807.13;131217;1252;106641;-79
2023/09/03 14:12:18;;;;;;;1.90;1.70;;;;;;;22.19;49.16;100808.16;131209;1252;106504;-81